sensor_id;sensor_type;location;lat;lon;timestamp;P1;durP1;ratioP1;P2;durP2;ratioP2
13469;SDS011;6807;48.682;9.032;2023-02-28T00:00:45;3.10;;;2.45;;
13469;SDS011;6807;48.682;9.032;2023-02-28T00:03:12;2.72;;;2.53;;
13469;SDS011;6807;48.682;9.032;2023-02-28T00:05:40;2.55;;;2.35;;
13469;SDS011;6807;48.682;9.032;2023-02-28T00:08:08;3.08;;;2.10;;
13469;SDS011;6807;48.682;9.032;2023-02-28T00:10:35;2.17;;;2.03;;
13469;SDS011;6807;48.682;9.032;2023-02-28T00:13:03;3.35;;;2.70;;
13469;SDS011;6807;48.682;9.032;2023-02-28T00:15:31;3.50;;;2.42;;
13469;SDS011;6807;48.682;9.032;2023-02-28T00:17:58;2.47;;;2.28;;
13469;SDS011;6807;48.682;9.032;2023-02-28T00:20:25;3.45;;;2.40;;
13469;SDS011;6807;48.682;9.032;2023-02-28T00:22:54;2.92;;;2.65;;
13469;SDS011;6807;48.682;9.032;2023-02-28T00:25:22;3.75;;;2.30;;
13469;SDS011;6807;48.682;9.032;2023-02-28T00:27:50;3.72;;;2.63;;
13469;SDS011;6807;48.682;9.032;2023-02-28T00:30:18;4.78;;;2.33;;
13469;SDS011;6807;48.682;9.032;2023-02-28T00:32:45;3.28;;;2.38;;
13469;SDS011;6807;48.682;9.032;2023-02-28T00:35:13;4.15;;;2.70;;
13469;SDS011;6807;48.682;9.032;2023-02-28T00:37:40;2.75;;;2.20;;
13469;SDS011;6807;48.682;9.032;2023-02-28T00:40:09;3.38;;;2.67;;
13469;SDS011;6807;48.682;9.032;2023-02-28T00:42:37;4.40;;;2.90;;
13469;SDS011;6807;48.682;9.032;2023-02-28T00:45:05;2.50;;;2.30;;
13469;SDS011;6807;48.682;9.032;2023-02-28T00:47:33;3.20;;;2.42;;
13469;SDS011;6807;48.682;9.032;2023-02-28T00:50:00;3.05;;;2.45;;
13469;SDS011;6807;48.682;9.032;2023-02-28T00:52:27;2.90;;;2.55;;
13469;SDS011;6807;48.682;9.032;2023-02-28T00:54:54;2.92;;;2.50;;
13469;SDS011;6807;48.682;9.032;2023-02-28T00:57:23;3.08;;;2.72;;
13469;SDS011;6807;48.682;9.032;2023-02-28T00:59:51;3.33;;;2.50;;
13469;SDS011;6807;48.682;9.032;2023-02-28T01:02:20;3.47;;;2.40;;
13469;SDS011;6807;48.682;9.032;2023-02-28T01:04:47;2.83;;;2.63;;
13469;SDS011;6807;48.682;9.032;2023-02-28T01:07:14;3.20;;;2.90;;
13469;SDS011;6807;48.682;9.032;2023-02-28T01:09:41;3.17;;;2.85;;
13469;SDS011;6807;48.682;9.032;2023-02-28T01:12:09;3.65;;;3.33;;
13469;SDS011;6807;48.682;9.032;2023-02-28T01:14:37;5.57;;;2.35;;
13469;SDS011;6807;48.682;9.032;2023-02-28T01:17:04;3.63;;;2.90;;
13469;SDS011;6807;48.682;9.032;2023-02-28T01:19:32;3.17;;;2.42;;
13469;SDS011;6807;48.682;9.032;2023-02-28T01:22:00;3.00;;;2.63;;
13469;SDS011;6807;48.682;9.032;2023-02-28T01:24:27;3.25;;;2.55;;
13469;SDS011;6807;48.682;9.032;2023-02-28T01:26:54;2.53;;;2.33;;
13469;SDS011;6807;48.682;9.032;2023-02-28T01:29:21;2.63;;;1.90;;
13469;SDS011;6807;48.682;9.032;2023-02-28T01:31:50;2.25;;;2.00;;
13469;SDS011;6807;48.682;9.032;2023-02-28T01:34:17;4.45;;;2.60;;
13469;SDS011;6807;48.682;9.032;2023-02-28T01:36:45;5.45;;;2.65;;
13469;SDS011;6807;48.682;9.032;2023-02-28T01:39:12;3.80;;;2.90;;
13469;SDS011;6807;48.682;9.032;2023-02-28T01:41:39;3.50;;;2.13;;
13469;SDS011;6807;48.682;9.032;2023-02-28T01:44:07;4.78;;;3.03;;
13469;SDS011;6807;48.682;9.032;2023-02-28T01:46:34;7.53;;;3.03;;
13469;SDS011;6807;48.682;9.032;2023-02-28T01:49:05;6.22;;;2.75;;
13469;SDS011;6807;48.682;9.032;2023-02-28T01:51:35;5.82;;;3.00;;
13469;SDS011;6807;48.682;9.032;2023-02-28T01:54:05;4.15;;;2.90;;
13469;SDS011;6807;48.682;9.032;2023-02-28T01:56:38;3.22;;;2.35;;
13469;SDS011;6807;48.682;9.032;2023-02-28T01:59:07;5.00;;;3.30;;
13469;SDS011;6807;48.682;9.032;2023-02-28T02:01:34;3.13;;;2.75;;
13469;SDS011;6807;48.682;9.032;2023-02-28T02:04:02;2.45;;;2.35;;
13469;SDS011;6807;48.682;9.032;2023-02-28T02:09:01;4.40;;;2.90;;
13469;SDS011;6807;48.682;9.032;2023-02-28T02:11:29;3.50;;;2.60;;
13469;SDS011;6807;48.682;9.032;2023-02-28T02:14:01;5.45;;;2.83;;
13469;SDS011;6807;48.682;9.032;2023-02-28T02:16:34;4.05;;;3.05;;
13469;SDS011;6807;48.682;9.032;2023-02-28T02:19:08;3.22;;;2.92;;
13469;SDS011;6807;48.682;9.032;2023-02-28T02:22:02;3.53;;;2.72;;
13469;SDS011;6807;48.682;9.032;2023-02-28T02:24:47;3.58;;;2.80;;
13469;SDS011;6807;48.682;9.032;2023-02-28T02:27:26;4.63;;;3.28;;
13469;SDS011;6807;48.682;9.032;2023-02-28T02:32:58;2.63;;;2.42;;
13469;SDS011;6807;48.682;9.032;2023-02-28T02:35:31;3.40;;;2.63;;
13469;SDS011;6807;48.682;9.032;2023-02-28T02:38:03;3.08;;;2.75;;
13469;SDS011;6807;48.682;9.032;2023-02-28T02:40:35;3.47;;;2.92;;
13469;SDS011;6807;48.682;9.032;2023-02-28T02:43:06;4.18;;;3.30;;
13469;SDS011;6807;48.682;9.032;2023-02-28T02:45:34;3.28;;;2.97;;
13469;SDS011;6807;48.682;9.032;2023-02-28T02:48:04;2.63;;;2.42;;
13469;SDS011;6807;48.682;9.032;2023-02-28T02:50:35;3.40;;;2.72;;
13469;SDS011;6807;48.682;9.032;2023-02-28T02:53:03;5.32;;;2.70;;
13469;SDS011;6807;48.682;9.032;2023-02-28T02:55:31;3.53;;;3.22;;
13469;SDS011;6807;48.682;9.032;2023-02-28T02:58:01;3.28;;;2.97;;
13469;SDS011;6807;48.682;9.032;2023-02-28T03:00:30;5.03;;;3.30;;
13469;SDS011;6807;48.682;9.032;2023-02-28T03:02:59;3.83;;;3.15;;
13469;SDS011;6807;48.682;9.032;2023-02-28T03:05:28;5.47;;;2.97;;
13469;SDS011;6807;48.682;9.032;2023-02-28T03:07:58;3.65;;;2.85;;
13469;SDS011;6807;48.682;9.032;2023-02-28T03:10:34;3.42;;;2.90;;
13469;SDS011;6807;48.682;9.032;2023-02-28T03:13:12;4.55;;;3.05;;
13469;SDS011;6807;48.682;9.032;2023-02-28T03:15:45;4.35;;;3.08;;
13469;SDS011;6807;48.682;9.032;2023-02-28T03:18:20;4.50;;;3.10;;
13469;SDS011;6807;48.682;9.032;2023-02-28T03:20:53;6.32;;;3.13;;
13469;SDS011;6807;48.682;9.032;2023-02-28T03:23:27;4.53;;;3.42;;
13469;SDS011;6807;48.682;9.032;2023-02-28T03:25:59;4.75;;;3.53;;
13469;SDS011;6807;48.682;9.032;2023-02-28T03:28:30;3.60;;;3.03;;
13469;SDS011;6807;48.682;9.032;2023-02-28T03:30:59;18.25;;;2.42;;
13469;SDS011;6807;48.682;9.032;2023-02-28T03:33:28;3.03;;;2.78;;
13469;SDS011;6807;48.682;9.032;2023-02-28T03:35:57;4.40;;;3.38;;
13469;SDS011;6807;48.682;9.032;2023-02-28T03:38:27;4.13;;;3.45;;
13469;SDS011;6807;48.682;9.032;2023-02-28T03:40:56;3.92;;;3.58;;
13469;SDS011;6807;48.682;9.032;2023-02-28T03:43:26;3.60;;;3.30;;
13469;SDS011;6807;48.682;9.032;2023-02-28T03:45:55;6.10;;;3.47;;
13469;SDS011;6807;48.682;9.032;2023-02-28T03:48:23;3.35;;;3.05;;
13469;SDS011;6807;48.682;9.032;2023-02-28T03:50:53;5.97;;;3.53;;
13469;SDS011;6807;48.682;9.032;2023-02-28T03:53:22;4.78;;;3.38;;
13469;SDS011;6807;48.682;9.032;2023-02-28T03:55:53;4.90;;;3.42;;
13469;SDS011;6807;48.682;9.032;2023-02-28T03:58:24;4.05;;;3.45;;
13469;SDS011;6807;48.682;9.032;2023-02-28T04:00:55;3.75;;;3.40;;
13469;SDS011;6807;48.682;9.032;2023-02-28T04:03:23;3.33;;;3.03;;
13469;SDS011;6807;48.682;9.032;2023-02-28T04:05:51;5.00;;;3.58;;
13469;SDS011;6807;48.682;9.032;2023-02-28T04:08:18;5.70;;;4.13;;
13469;SDS011;6807;48.682;9.032;2023-02-28T04:10:48;5.05;;;3.53;;
13469;SDS011;6807;48.682;9.032;2023-02-28T04:13:18;3.42;;;3.10;;
13469;SDS011;6807;48.682;9.032;2023-02-28T04:15:45;4.47;;;3.30;;
13469;SDS011;6807;48.682;9.032;2023-02-28T04:18:13;4.28;;;3.60;;
13469;SDS011;6807;48.682;9.032;2023-02-28T04:20:41;5.15;;;4.65;;
13469;SDS011;6807;48.682;9.032;2023-02-28T04:23:08;4.82;;;3.60;;
13469;SDS011;6807;48.682;9.032;2023-02-28T04:25:35;5.07;;;3.70;;
13469;SDS011;6807;48.682;9.032;2023-02-28T04:28:02;5.15;;;3.63;;
13469;SDS011;6807;48.682;9.032;2023-02-28T04:30:31;4.85;;;4.15;;
13469;SDS011;6807;48.682;9.032;2023-02-28T04:32:58;4.30;;;3.30;;
13469;SDS011;6807;48.682;9.032;2023-02-28T04:35:25;5.88;;;4.15;;
13469;SDS011;6807;48.682;9.032;2023-02-28T04:37:52;3.92;;;3.53;;
13469;SDS011;6807;48.682;9.032;2023-02-28T04:40:20;5.63;;;3.90;;
13469;SDS011;6807;48.682;9.032;2023-02-28T04:42:47;7.32;;;4.10;;
13469;SDS011;6807;48.682;9.032;2023-02-28T04:45:14;3.92;;;3.53;;
13469;SDS011;6807;48.682;9.032;2023-02-28T04:47:43;5.65;;;4.05;;
13469;SDS011;6807;48.682;9.032;2023-02-28T04:50:10;4.50;;;3.78;;
13469;SDS011;6807;48.682;9.032;2023-02-28T04:52:38;4.72;;;3.72;;
13469;SDS011;6807;48.682;9.032;2023-02-28T04:55:05;4.70;;;4.18;;
13469;SDS011;6807;48.682;9.032;2023-02-28T04:57:32;5.20;;;3.22;;
13469;SDS011;6807;48.682;9.032;2023-02-28T04:59:59;6.50;;;3.78;;
13469;SDS011;6807;48.682;9.032;2023-02-28T05:02:29;3.15;;;2.85;;
13469;SDS011;6807;48.682;9.032;2023-02-28T05:04:58;6.55;;;4.10;;
13469;SDS011;6807;48.682;9.032;2023-02-28T05:07:25;3.65;;;3.30;;
13469;SDS011;6807;48.682;9.032;2023-02-28T05:09:52;7.28;;;3.88;;
13469;SDS011;6807;48.682;9.032;2023-02-28T05:12:19;5.13;;;4.10;;
13469;SDS011;6807;48.682;9.032;2023-02-28T05:14:47;4.45;;;4.05;;
13469;SDS011;6807;48.682;9.032;2023-02-28T05:17:14;4.82;;;4.15;;
13469;SDS011;6807;48.682;9.032;2023-02-28T05:19:41;4.53;;;3.30;;
13469;SDS011;6807;48.682;9.032;2023-02-28T05:22:14;4.60;;;3.80;;
13469;SDS011;6807;48.682;9.032;2023-02-28T05:24:42;6.65;;;5.25;;
13469;SDS011;6807;48.682;9.032;2023-02-28T05:27:09;5.53;;;4.63;;
13469;SDS011;6807;48.682;9.032;2023-02-28T05:29:37;5.72;;;4.05;;
13469;SDS011;6807;48.682;9.032;2023-02-28T05:32:08;5.80;;;4.18;;
13469;SDS011;6807;48.682;9.032;2023-02-28T05:34:35;5.28;;;3.90;;
13469;SDS011;6807;48.682;9.032;2023-02-28T05:37:03;3.83;;;3.40;;
13469;SDS011;6807;48.682;9.032;2023-02-28T05:39:31;4.25;;;3.72;;
13469;SDS011;6807;48.682;9.032;2023-02-28T05:41:59;4.03;;;3.60;;
13469;SDS011;6807;48.682;9.032;2023-02-28T05:44:26;4.35;;;3.92;;
13469;SDS011;6807;48.682;9.032;2023-02-28T05:46:53;7.40;;;4.80;;
13469;SDS011;6807;48.682;9.032;2023-02-28T05:49:20;5.03;;;4.13;;
13469;SDS011;6807;48.682;9.032;2023-02-28T05:51:48;5.85;;;4.60;;
13469;SDS011;6807;48.682;9.032;2023-02-28T05:54:15;5.18;;;4.57;;
13469;SDS011;6807;48.682;9.032;2023-02-28T05:56:44;8.50;;;4.18;;
13469;SDS011;6807;48.682;9.032;2023-02-28T05:59:11;5.35;;;3.97;;
13469;SDS011;6807;48.682;9.032;2023-02-28T06:01:39;4.78;;;4.10;;
13469;SDS011;6807;48.682;9.032;2023-02-28T06:04:07;5.35;;;4.20;;
13469;SDS011;6807;48.682;9.032;2023-02-28T06:06:34;4.45;;;3.97;;
13469;SDS011;6807;48.682;9.032;2023-02-28T06:09:02;5.45;;;4.03;;
13469;SDS011;6807;48.682;9.032;2023-02-28T06:11:29;8.55;;;5.07;;
13469;SDS011;6807;48.682;9.032;2023-02-28T06:13:58;4.57;;;4.18;;
13469;SDS011;6807;48.682;9.032;2023-02-28T06:16:26;9.13;;;4.57;;
13469;SDS011;6807;48.682;9.032;2023-02-28T06:18:53;7.18;;;4.25;;
13469;SDS011;6807;48.682;9.032;2023-02-28T06:21:21;5.70;;;4.53;;
13469;SDS011;6807;48.682;9.032;2023-02-28T06:26:19;8.40;;;5.53;;
13469;SDS011;6807;48.682;9.032;2023-02-28T06:28:47;6.72;;;4.80;;
13469;SDS011;6807;48.682;9.032;2023-02-28T06:31:16;6.47;;;4.95;;
13469;SDS011;6807;48.682;9.032;2023-02-28T06:33:57;4.53;;;4.05;;
13469;SDS011;6807;48.682;9.032;2023-02-28T06:36:24;6.53;;;5.22;;
13469;SDS011;6807;48.682;9.032;2023-02-28T06:38:51;5.70;;;4.38;;
13469;SDS011;6807;48.682;9.032;2023-02-28T06:41:21;7.15;;;5.13;;
13469;SDS011;6807;48.682;9.032;2023-02-28T06:43:49;6.90;;;4.45;;
13469;SDS011;6807;48.682;9.032;2023-02-28T06:46:18;8.18;;;4.68;;
13469;SDS011;6807;48.682;9.032;2023-02-28T06:48:45;8.32;;;4.75;;
13469;SDS011;6807;48.682;9.032;2023-02-28T06:51:14;7.45;;;5.05;;
13469;SDS011;6807;48.682;9.032;2023-02-28T06:53:42;6.03;;;4.40;;
13469;SDS011;6807;48.682;9.032;2023-02-28T06:56:09;4.57;;;4.15;;
13469;SDS011;6807;48.682;9.032;2023-02-28T06:58:37;3.20;;;2.58;;
13469;SDS011;6807;48.682;9.032;2023-02-28T07:01:05;8.40;;;4.75;;
13469;SDS011;6807;48.682;9.032;2023-02-28T07:03:34;6.07;;;5.03;;
13469;SDS011;6807;48.682;9.032;2023-02-28T07:06:01;8.45;;;5.75;;
13469;SDS011;6807;48.682;9.032;2023-02-28T07:08:29;7.97;;;5.40;;
13469;SDS011;6807;48.682;9.032;2023-02-28T07:10:57;5.72;;;4.45;;
13469;SDS011;6807;48.682;9.032;2023-02-28T07:13:25;6.55;;;5.25;;
13469;SDS011;6807;48.682;9.032;2023-02-28T07:15:53;10.27;;;4.95;;
13469;SDS011;6807;48.682;9.032;2023-02-28T07:18:20;10.20;;;6.22;;
13469;SDS011;6807;48.682;9.032;2023-02-28T07:20:49;7.97;;;5.93;;
13469;SDS011;6807;48.682;9.032;2023-02-28T07:23:16;7.68;;;6.18;;
13469;SDS011;6807;48.682;9.032;2023-02-28T07:25:43;7.78;;;6.00;;
13469;SDS011;6807;48.682;9.032;2023-02-28T07:28:11;8.40;;;6.05;;
13469;SDS011;6807;48.682;9.032;2023-02-28T07:30:38;9.63;;;6.72;;
13469;SDS011;6807;48.682;9.032;2023-02-28T07:33:05;12.48;;;6.82;;
13469;SDS011;6807;48.682;9.032;2023-02-28T07:35:32;9.15;;;6.22;;
13469;SDS011;6807;48.682;9.032;2023-02-28T07:38:01;6.25;;;4.57;;
13469;SDS011;6807;48.682;9.032;2023-02-28T07:40:29;7.10;;;5.68;;
13469;SDS011;6807;48.682;9.032;2023-02-28T07:42:56;9.27;;;5.18;;
13469;SDS011;6807;48.682;9.032;2023-02-28T07:45:25;7.25;;;5.28;;
13469;SDS011;6807;48.682;9.032;2023-02-28T07:47:53;7.53;;;5.32;;
13469;SDS011;6807;48.682;9.032;2023-02-28T07:50:21;6.53;;;5.15;;
13469;SDS011;6807;48.682;9.032;2023-02-28T07:52:48;5.70;;;4.82;;
13469;SDS011;6807;48.682;9.032;2023-02-28T07:55:17;4.45;;;3.50;;
13469;SDS011;6807;48.682;9.032;2023-02-28T07:57:45;7.57;;;5.50;;
13469;SDS011;6807;48.682;9.032;2023-02-28T08:00:12;5.13;;;3.50;;
13469;SDS011;6807;48.682;9.032;2023-02-28T08:02:39;4.18;;;3.30;;
13469;SDS011;6807;48.682;9.032;2023-02-28T08:05:07;4.25;;;3.78;;
13469;SDS011;6807;48.682;9.032;2023-02-28T08:07:35;8.93;;;5.70;;
13469;SDS011;6807;48.682;9.032;2023-02-28T08:10:03;11.07;;;4.65;;
13469;SDS011;6807;48.682;9.032;2023-02-28T08:12:32;8.48;;;6.22;;
13469;SDS011;6807;48.682;9.032;2023-02-28T08:15:00;9.48;;;5.65;;
13469;SDS011;6807;48.682;9.032;2023-02-28T08:17:27;7.50;;;5.78;;
13469;SDS011;6807;48.682;9.032;2023-02-28T08:19:55;9.02;;;5.30;;
13469;SDS011;6807;48.682;9.032;2023-02-28T08:22:22;5.53;;;5.03;;
13469;SDS011;6807;48.682;9.032;2023-02-28T08:24:49;4.43;;;3.85;;
13469;SDS011;6807;48.682;9.032;2023-02-28T08:27:16;4.78;;;4.07;;
13469;SDS011;6807;48.682;9.032;2023-02-28T08:29:45;6.15;;;5.20;;
13469;SDS011;6807;48.682;9.032;2023-02-28T08:32:12;6.50;;;5.50;;
13469;SDS011;6807;48.682;9.032;2023-02-28T08:34:39;8.27;;;5.97;;
13469;SDS011;6807;48.682;9.032;2023-02-28T08:37:07;8.88;;;4.60;;
13469;SDS011;6807;48.682;9.032;2023-02-28T08:39:34;5.97;;;4.72;;
13469;SDS011;6807;48.682;9.032;2023-02-28T08:42:02;6.63;;;5.68;;
13469;SDS011;6807;48.682;9.032;2023-02-28T08:44:29;9.02;;;7.03;;
13469;SDS011;6807;48.682;9.032;2023-02-28T08:46:58;8.02;;;5.85;;
13469;SDS011;6807;48.682;9.032;2023-02-28T08:49:25;10.07;;;6.45;;
13469;SDS011;6807;48.682;9.032;2023-02-28T08:51:53;9.85;;;6.60;;
13469;SDS011;6807;48.682;9.032;2023-02-28T08:54:22;8.50;;;6.13;;
13469;SDS011;6807;48.682;9.032;2023-02-28T08:56:49;6.05;;;4.63;;
13469;SDS011;6807;48.682;9.032;2023-02-28T08:59:16;8.25;;;6.50;;
13469;SDS011;6807;48.682;9.032;2023-02-28T09:01:43;7.30;;;5.22;;
13469;SDS011;6807;48.682;9.032;2023-02-28T09:04:12;4.35;;;3.92;;
13469;SDS011;6807;48.682;9.032;2023-02-28T09:06:39;10.90;;;6.47;;
13469;SDS011;6807;48.682;9.032;2023-02-28T09:09:06;8.25;;;6.25;;
13469;SDS011;6807;48.682;9.032;2023-02-28T09:11:34;6.80;;;5.68;;
13469;SDS011;6807;48.682;9.032;2023-02-28T09:14:02;6.30;;;4.55;;
13469;SDS011;6807;48.682;9.032;2023-02-28T09:16:29;6.97;;;5.38;;
13469;SDS011;6807;48.682;9.032;2023-02-28T09:18:56;5.35;;;4.82;;
13469;SDS011;6807;48.682;9.032;2023-02-28T09:21:25;8.05;;;5.80;;
13469;SDS011;6807;48.682;9.032;2023-02-28T09:23:52;5.95;;;4.15;;
13469;SDS011;6807;48.682;9.032;2023-02-28T09:26:20;3.90;;;3.58;;
13469;SDS011;6807;48.682;9.032;2023-02-28T09:28:48;10.70;;;5.78;;
13469;SDS011;6807;48.682;9.032;2023-02-28T09:31:17;8.95;;;6.57;;
13469;SDS011;6807;48.682;9.032;2023-02-28T09:33:46;8.50;;;5.88;;
13469;SDS011;6807;48.682;9.032;2023-02-28T09:36:13;6.40;;;4.57;;
13469;SDS011;6807;48.682;9.032;2023-02-28T09:38:42;7.75;;;5.90;;
13469;SDS011;6807;48.682;9.032;2023-02-28T09:41:11;9.52;;;7.05;;
13469;SDS011;6807;48.682;9.032;2023-02-28T09:43:40;5.70;;;4.40;;
13469;SDS011;6807;48.682;9.032;2023-02-28T09:46:12;11.55;;;5.00;;
13469;SDS011;6807;48.682;9.032;2023-02-28T09:48:41;5.05;;;3.88;;
13469;SDS011;6807;48.682;9.032;2023-02-28T09:51:13;9.00;;;6.22;;
13469;SDS011;6807;48.682;9.032;2023-02-28T09:53:44;7.80;;;5.88;;
13469;SDS011;6807;48.682;9.032;2023-02-28T09:56:11;7.43;;;5.78;;
13469;SDS011;6807;48.682;9.032;2023-02-28T09:58:44;7.72;;;6.68;;
13469;SDS011;6807;48.682;9.032;2023-02-28T10:01:18;9.10;;;6.72;;
13469;SDS011;6807;48.682;9.032;2023-02-28T10:03:49;7.25;;;4.75;;
13469;SDS011;6807;48.682;9.032;2023-02-28T10:06:22;3.08;;;2.38;;
13469;SDS011;6807;48.682;9.032;2023-02-28T10:08:56;10.65;;;6.57;;
13469;SDS011;6807;48.682;9.032;2023-02-28T10:11:25;9.73;;;6.80;;
13469;SDS011;6807;48.682;9.032;2023-02-28T10:13:54;8.85;;;6.13;;
13469;SDS011;6807;48.682;9.032;2023-02-28T10:16:27;7.82;;;4.60;;
13469;SDS011;6807;48.682;9.032;2023-02-28T10:18:57;10.82;;;6.22;;
13469;SDS011;6807;48.682;9.032;2023-02-28T10:21:28;9.35;;;6.78;;
13469;SDS011;6807;48.682;9.032;2023-02-28T10:23:59;11.25;;;7.38;;
13469;SDS011;6807;48.682;9.032;2023-02-28T10:26:28;7.43;;;4.90;;
13469;SDS011;6807;48.682;9.032;2023-02-28T10:28:56;5.97;;;4.32;;
13469;SDS011;6807;48.682;9.032;2023-02-28T10:31:23;6.75;;;5.85;;
13469;SDS011;6807;48.682;9.032;2023-02-28T10:33:50;4.72;;;4.25;;
13469;SDS011;6807;48.682;9.032;2023-02-28T10:36:18;14.18;;;6.95;;
13469;SDS011;6807;48.682;9.032;2023-02-28T10:38:46;7.88;;;5.55;;
13469;SDS011;6807;48.682;9.032;2023-02-28T10:41:15;7.82;;;4.78;;
13469;SDS011;6807;48.682;9.032;2023-02-28T10:43:43;9.40;;;6.47;;
13469;SDS011;6807;48.682;9.032;2023-02-28T10:46:12;7.07;;;5.72;;
13469;SDS011;6807;48.682;9.032;2023-02-28T10:48:40;9.00;;;5.70;;
13469;SDS011;6807;48.682;9.032;2023-02-28T10:51:09;7.63;;;6.13;;
13469;SDS011;6807;48.682;9.032;2023-02-28T10:53:38;7.07;;;4.00;;
13469;SDS011;6807;48.682;9.032;2023-02-28T10:56:13;7.55;;;5.78;;
13469;SDS011;6807;48.682;9.032;2023-02-28T10:58:48;6.43;;;4.45;;
13469;SDS011;6807;48.682;9.032;2023-02-28T11:01:16;7.20;;;5.70;;
13469;SDS011;6807;48.682;9.032;2023-02-28T11:03:43;12.88;;;6.15;;
13469;SDS011;6807;48.682;9.032;2023-02-28T11:06:13;4.53;;;4.00;;
13469;SDS011;6807;48.682;9.032;2023-02-28T11:08:49;8.45;;;6.03;;
13469;SDS011;6807;48.682;9.032;2023-02-28T11:11:16;10.23;;;6.78;;
13469;SDS011;6807;48.682;9.032;2023-02-28T11:13:44;8.68;;;5.53;;
13469;SDS011;6807;48.682;9.032;2023-02-28T11:16:14;6.57;;;5.53;;
13469;SDS011;6807;48.682;9.032;2023-02-28T11:18:42;6.05;;;4.50;;
13469;SDS011;6807;48.682;9.032;2023-02-28T11:21:15;7.55;;;6.05;;
13469;SDS011;6807;48.682;9.032;2023-02-28T11:23:43;6.75;;;4.82;;
13469;SDS011;6807;48.682;9.032;2023-02-28T11:26:10;9.95;;;5.95;;
13469;SDS011;6807;48.682;9.032;2023-02-28T11:28:39;6.25;;;4.32;;
13469;SDS011;6807;48.682;9.032;2023-02-28T11:31:16;9.60;;;6.05;;
13469;SDS011;6807;48.682;9.032;2023-02-28T11:33:46;6.45;;;3.58;;
13469;SDS011;6807;48.682;9.032;2023-02-28T11:36:16;22.30;;;4.55;;
13469;SDS011;6807;48.682;9.032;2023-02-28T11:38:44;6.03;;;5.10;;
13469;SDS011;6807;48.682;9.032;2023-02-28T11:41:18;6.35;;;5.00;;
13469;SDS011;6807;48.682;9.032;2023-02-28T11:43:53;8.52;;;6.10;;
13469;SDS011;6807;48.682;9.032;2023-02-28T11:46:29;6.60;;;5.15;;
13469;SDS011;6807;48.682;9.032;2023-02-28T11:49:02;8.95;;;6.35;;
13469;SDS011;6807;48.682;9.032;2023-02-28T11:51:34;7.57;;;5.93;;
13469;SDS011;6807;48.682;9.032;2023-02-28T11:56:47;10.27;;;7.03;;
13469;SDS011;6807;48.682;9.032;2023-02-28T11:59:21;6.93;;;5.85;;
13469;SDS011;6807;48.682;9.032;2023-02-28T12:02:01;4.63;;;3.85;;
13469;SDS011;6807;48.682;9.032;2023-02-28T12:04:33;9.95;;;6.75;;
13469;SDS011;6807;48.682;9.032;2023-02-28T12:07:05;9.93;;;6.38;;
13469;SDS011;6807;48.682;9.032;2023-02-28T12:09:39;6.88;;;6.18;;
13469;SDS011;6807;48.682;9.032;2023-02-28T12:12:10;7.43;;;5.95;;
13469;SDS011;6807;48.682;9.032;2023-02-28T12:14:46;7.15;;;6.25;;
13469;SDS011;6807;48.682;9.032;2023-02-28T12:17:22;6.93;;;5.97;;
13469;SDS011;6807;48.682;9.032;2023-02-28T12:19:54;8.98;;;6.75;;
13469;SDS011;6807;48.682;9.032;2023-02-28T12:22:29;9.77;;;7.13;;
13469;SDS011;6807;48.682;9.032;2023-02-28T12:25:01;8.50;;;7.13;;
13469;SDS011;6807;48.682;9.032;2023-02-28T12:27:30;8.63;;;6.38;;
13469;SDS011;6807;48.682;9.032;2023-02-28T12:30:01;7.38;;;6.13;;
13469;SDS011;6807;48.682;9.032;2023-02-28T12:32:31;10.35;;;6.32;;
13469;SDS011;6807;48.682;9.032;2023-02-28T12:35:01;8.18;;;6.70;;
13469;SDS011;6807;48.682;9.032;2023-02-28T12:37:29;7.50;;;6.20;;
13469;SDS011;6807;48.682;9.032;2023-02-28T12:40:00;8.50;;;6.88;;
13469;SDS011;6807;48.682;9.032;2023-02-28T12:42:31;11.27;;;6.18;;
13469;SDS011;6807;48.682;9.032;2023-02-28T12:45:01;7.68;;;6.05;;
13469;SDS011;6807;48.682;9.032;2023-02-28T12:47:28;7.80;;;5.55;;
13469;SDS011;6807;48.682;9.032;2023-02-28T12:49:58;8.55;;;6.28;;
13469;SDS011;6807;48.682;9.032;2023-02-28T12:52:29;7.30;;;6.57;;
13469;SDS011;6807;48.682;9.032;2023-02-28T12:54:59;9.63;;;6.78;;
13469;SDS011;6807;48.682;9.032;2023-02-28T12:57:31;7.45;;;6.50;;
13469;SDS011;6807;48.682;9.032;2023-02-28T13:00:03;8.30;;;6.25;;
13469;SDS011;6807;48.682;9.032;2023-02-28T13:05:32;7.70;;;5.65;;
13469;SDS011;6807;48.682;9.032;2023-02-28T13:10:47;7.95;;;5.43;;
13469;SDS011;6807;48.682;9.032;2023-02-28T13:13:19;5.22;;;4.00;;
13469;SDS011;6807;48.682;9.032;2023-02-28T13:15:56;6.30;;;5.45;;
13469;SDS011;6807;48.682;9.032;2023-02-28T13:18:28;7.75;;;6.22;;
13469;SDS011;6807;48.682;9.032;2023-02-28T13:20:57;8.95;;;6.28;;
13469;SDS011;6807;48.682;9.032;2023-02-28T13:23:55;8.63;;;5.75;;
13469;SDS011;6807;48.682;9.032;2023-02-28T13:29:27;6.57;;;5.97;;
13469;SDS011;6807;48.682;9.032;2023-02-28T13:34:47;7.20;;;6.05;;
13469;SDS011;6807;48.682;9.032;2023-02-28T13:40:40;9.50;;;6.72;;
13469;SDS011;6807;48.682;9.032;2023-02-28T13:43:08;7.00;;;6.22;;
13469;SDS011;6807;48.682;9.032;2023-02-28T13:45:35;6.65;;;5.13;;
13469;SDS011;6807;48.682;9.032;2023-02-28T13:48:04;8.00;;;5.80;;
13469;SDS011;6807;48.682;9.032;2023-02-28T13:50:41;9.13;;;6.70;;
13469;SDS011;6807;48.682;9.032;2023-02-28T13:55:58;9.48;;;6.55;;
13469;SDS011;6807;48.682;9.032;2023-02-28T13:58:34;8.88;;;6.47;;
13469;SDS011;6807;48.682;9.032;2023-02-28T14:01:11;8.23;;;6.22;;
13469;SDS011;6807;48.682;9.032;2023-02-28T14:03:48;7.22;;;6.53;;
13469;SDS011;6807;48.682;9.032;2023-02-28T14:06:24;4.43;;;4.03;;
13469;SDS011;6807;48.682;9.032;2023-02-28T14:08:54;8.05;;;6.20;;
13469;SDS011;6807;48.682;9.032;2023-02-28T14:11:28;7.80;;;6.18;;
13469;SDS011;6807;48.682;9.032;2023-02-28T14:13:56;7.03;;;6.10;;
13469;SDS011;6807;48.682;9.032;2023-02-28T14:16:24;6.22;;;5.60;;
13469;SDS011;6807;48.682;9.032;2023-02-28T14:18:55;9.05;;;7.05;;
13469;SDS011;6807;48.682;9.032;2023-02-28T14:21:23;9.35;;;6.53;;
13469;SDS011;6807;48.682;9.032;2023-02-28T14:23:58;9.07;;;6.03;;
13469;SDS011;6807;48.682;9.032;2023-02-28T14:26:32;6.28;;;5.55;;
13469;SDS011;6807;48.682;9.032;2023-02-28T14:29:09;8.23;;;6.38;;
13469;SDS011;6807;48.682;9.032;2023-02-28T14:31:40;10.73;;;7.40;;
13469;SDS011;6807;48.682;9.032;2023-02-28T14:34:17;8.27;;;6.15;;
13469;SDS011;6807;48.682;9.032;2023-02-28T14:36:47;8.23;;;5.32;;
13469;SDS011;6807;48.682;9.032;2023-02-28T14:39:16;9.50;;;6.45;;
13469;SDS011;6807;48.682;9.032;2023-02-28T14:41:47;8.70;;;6.63;;
13469;SDS011;6807;48.682;9.032;2023-02-28T14:44:15;6.93;;;6.18;;
13469;SDS011;6807;48.682;9.032;2023-02-28T14:46:43;9.32;;;6.45;;
13469;SDS011;6807;48.682;9.032;2023-02-28T14:49:16;9.27;;;6.80;;
13469;SDS011;6807;48.682;9.032;2023-02-28T14:54:35;5.55;;;4.32;;
13469;SDS011;6807;48.682;9.032;2023-02-28T14:59:58;8.88;;;6.10;;
13469;SDS011;6807;48.682;9.032;2023-02-28T15:02:29;7.55;;;5.32;;
13469;SDS011;6807;48.682;9.032;2023-02-28T15:04:57;8.20;;;6.80;;
13469;SDS011;6807;48.682;9.032;2023-02-28T15:07:25;9.00;;;6.00;;
13469;SDS011;6807;48.682;9.032;2023-02-28T15:10:20;7.25;;;5.85;;
13469;SDS011;6807;48.682;9.032;2023-02-28T15:12:49;5.85;;;4.72;;
13469;SDS011;6807;48.682;9.032;2023-02-28T15:15:19;8.30;;;6.55;;
13469;SDS011;6807;48.682;9.032;2023-02-28T15:17:49;7.32;;;5.93;;
13469;SDS011;6807;48.682;9.032;2023-02-28T15:20:17;7.00;;;5.60;;
13469;SDS011;6807;48.682;9.032;2023-02-28T15:22:45;9.60;;;6.43;;
13469;SDS011;6807;48.682;9.032;2023-02-28T15:25:13;7.85;;;6.80;;
13469;SDS011;6807;48.682;9.032;2023-02-28T15:27:45;8.00;;;5.47;;
13469;SDS011;6807;48.682;9.032;2023-02-28T15:30:15;7.22;;;5.97;;
13469;SDS011;6807;48.682;9.032;2023-02-28T15:32:44;7.40;;;6.10;;
13469;SDS011;6807;48.682;9.032;2023-02-28T15:35:19;7.00;;;5.30;;
13469;SDS011;6807;48.682;9.032;2023-02-28T15:37:47;8.63;;;6.50;;
13469;SDS011;6807;48.682;9.032;2023-02-28T15:40:16;9.48;;;6.47;;
13469;SDS011;6807;48.682;9.032;2023-02-28T15:42:57;8.20;;;6.35;;
13469;SDS011;6807;48.682;9.032;2023-02-28T15:45:28;8.43;;;5.82;;
13469;SDS011;6807;48.682;9.032;2023-02-28T15:47:57;7.80;;;6.22;;